LIBF/FOG METAR and TAF weather

Enter ICAO airport designator
Station Type Date Time Source
LIBF METAR 2019/10/22 15:50 UTC NOAA

LIBF 221550Z 10007KT CAVOK 22/16 Q1021


Station Type Date Time Source
LIBF Decoded METAR 2019/10/22 15:50 UTC NOAA

Station name not available
Oct 22, 2019 - 11:50 AM EDT / 2019.10.22 1550 UTC
Wind: from the E (100 degrees) at 8 MPH (7 KT):0
Visibility: greater than 7 mile(s):0
Temperature: 71 F (22 C)
Dew Point: 60 F (16 C)
Relative Humidity: 68%
Pressure (altimeter): 30.15 in. Hg (1021 hPa)
ob: LIBF 221550Z 10007KT CAVOK 22/16 Q1021
cycle: 16

Station Type Date Time Source
LIBF TAF 2015/04/03 06:00 UTC NOAA

TAF LIBF 030500Z 0306/0406 35014KT 9999 FEW030

Example: see airport list